sensor_id;sensor_type;location;lat;lon;timestamp;pressure;altitude;pressure_sealevel;temperature;humidity
21182;BME280;10749;46.296;7.524;2022-10-16T00:00:16;95109.41;;;15.95;58.70
21182;BME280;10749;46.296;7.524;2022-10-16T00:02:42;95107.78;;;15.94;58.95
21182;BME280;10749;46.296;7.524;2022-10-16T00:05:07;95112.28;;;15.87;58.78
21182;BME280;10749;46.296;7.524;2022-10-16T00:07:32;95108.19;;;15.84;58.77
21182;BME280;10749;46.296;7.524;2022-10-16T00:09:58;95109.81;;;15.92;58.70
21182;BME280;10749;46.296;7.524;2022-10-16T00:12:23;95107.78;;;15.94;58.78
21182;BME280;10749;46.296;7.524;2022-10-16T00:14:48;95108.19;;;15.91;58.63
21182;BME280;10749;46.296;7.524;2022-10-16T00:17:13;95111.06;;;15.89;58.33
21182;BME280;10749;46.296;7.524;2022-10-16T00:19:39;95109.81;;;15.92;58.44
21182;BME280;10749;46.296;7.524;2022-10-16T00:22:04;95105.09;;;15.87;58.81
21182;BME280;10749;46.296;7.524;2022-10-16T00:24:29;95110.03;;;15.84;58.68
21182;BME280;10749;46.296;7.524;2022-10-16T00:26:54;95110.66;;;15.86;58.64
21182;BME280;10749;46.296;7.524;2022-10-16T00:29:20;95106.56;;;15.90;58.87
21182;BME280;10749;46.296;7.524;2022-10-16T00:31:45;95113.53;;;15.97;58.74
21182;BME280;10749;46.296;7.524;2022-10-16T00:34:10;95118.84;;;16.04;58.81
21182;BME280;10749;46.296;7.524;2022-10-16T00:36:36;95113.31;;;16.05;58.72
21182;BME280;10749;46.296;7.524;2022-10-16T00:39:02;95118.03;;;16.10;58.62
21182;BME280;10749;46.296;7.524;2022-10-16T00:41:28;95117.22;;;16.09;58.45
21182;BME280;10749;46.296;7.524;2022-10-16T00:43:58;95118.03;;;16.10;58.57
21182;BME280;10749;46.296;7.524;2022-10-16T00:46:50;95120.91;;;16.08;58.59
21182;BME280;10749;46.296;7.524;2022-10-16T00:49:17;95121.72;;;16.09;58.25
21182;BME280;10749;46.296;7.524;2022-10-16T00:51:47;95129.53;;;16.10;58.47
21182;BME280;10749;46.296;7.524;2022-10-16T00:54:28;95120.91;;;15.89;58.36
21182;BME280;10749;46.296;7.524;2022-10-16T00:56:55;95124.19;;;15.84;58.16
21182;BME280;10749;46.296;7.524;2022-10-16T00:59:27;95127.69;;;15.85;58.43
21182;BME280;10749;46.296;7.524;2022-10-16T01:01:53;95122.16;;;15.80;58.57
21182;BME280;10749;46.296;7.524;2022-10-16T01:04:20;95115.16;;;15.79;58.71
21182;BME280;10749;46.296;7.524;2022-10-16T01:09:38;95114.75;;;15.75;58.67
21182;BME280;10749;46.296;7.524;2022-10-16T01:12:14;95120.28;;;15.74;58.81
21182;BME280;10749;46.296;7.524;2022-10-16T01:14:53;95125.63;;;15.74;58.92
21182;BME280;10749;46.296;7.524;2022-10-16T01:17:25;95127.06;;;15.69;58.88
21182;BME280;10749;46.296;7.524;2022-10-16T01:20:29;95125.00;;;15.58;58.66
21182;BME280;10749;46.296;7.524;2022-10-16T01:28:15;95132.53;;;15.42;58.84
21182;BME280;10749;46.296;7.524;2022-10-16T01:30:44;95137.44;;;15.38;58.81
21182;BME280;10749;46.296;7.524;2022-10-16T01:33:20;95139.69;;;15.41;59.16
21182;BME280;10749;46.296;7.524;2022-10-16T01:35:53;95140.94;;;15.45;58.74
21182;BME280;10749;46.296;7.524;2022-10-16T01:38:33;95140.75;;;15.47;58.77
21182;BME280;10749;46.296;7.524;2022-10-16T01:41:37;95145.44;;;15.38;58.86
21182;BME280;10749;46.296;7.524;2022-10-16T01:44:10;95140.06;;;15.25;58.91
21182;BME280;10749;46.296;7.524;2022-10-16T01:46:39;95142.56;;;15.27;58.98
21182;BME280;10749;46.296;7.524;2022-10-16T01:49:05;95148.13;;;15.32;58.74
21182;BME280;10749;46.296;7.524;2022-10-16T01:51:32;95139.88;;;15.33;59.11
21182;BME280;10749;46.296;7.524;2022-10-16T01:54:00;95142.56;;;15.33;58.98
21182;BME280;10749;46.296;7.524;2022-10-16T01:56:27;95143.16;;;15.29;58.77
21182;BME280;10749;46.296;7.524;2022-10-16T01:58:57;95139.66;;;15.21;58.62
21182;BME280;10749;46.296;7.524;2022-10-16T02:01:26;95141.72;;;15.19;58.69
21182;BME280;10749;46.296;7.524;2022-10-16T02:03:54;95138.44;;;15.24;58.75
21182;BME280;10749;46.296;7.524;2022-10-16T02:06:21;95145.81;;;15.29;58.84
21182;BME280;10749;46.296;7.524;2022-10-16T02:08:47;95141.31;;;15.29;59.05
21182;BME280;10749;46.296;7.524;2022-10-16T02:11:13;95135.16;;;15.29;58.78
21182;BME280;10749;46.296;7.524;2022-10-16T02:14:01;95142.97;;;15.30;58.95
21182;BME280;10749;46.296;7.524;2022-10-16T02:16:36;95141.31;;;15.29;58.67
21182;BME280;10749;46.296;7.524;2022-10-16T02:19:03;95138.03;;;15.27;58.84
21182;BME280;10749;46.296;7.524;2022-10-16T02:21:42;95135.97;;;15.22;59.13
21182;BME280;10749;46.296;7.524;2022-10-16T02:24:44;95137.19;;;15.13;59.15
21182;BME280;10749;46.296;7.524;2022-10-16T02:27:16;95150.50;;;15.13;59.17
21182;BME280;10749;46.296;7.524;2022-10-16T02:29:53;95144.75;;;15.10;59.02
21182;BME280;10749;46.296;7.524;2022-10-16T02:32:26;95151.75;;;15.11;59.38
21182;BME280;10749;46.296;7.524;2022-10-16T02:34:55;95155.19;;;15.05;59.48
21182;BME280;10749;46.296;7.524;2022-10-16T02:37:21;95150.44;;;14.94;59.34
21182;BME280;10749;46.296;7.524;2022-10-16T02:39:46;95153.94;;;14.94;59.28
21182;BME280;10749;46.296;7.524;2022-10-16T02:42:13;95154.34;;;14.98;59.52
21182;BME280;10749;46.296;7.524;2022-10-16T02:44:39;95156.00;;;14.99;59.35
21182;BME280;10749;46.296;7.524;2022-10-16T02:47:04;95152.50;;;14.98;59.37
21182;BME280;10749;46.296;7.524;2022-10-16T02:49:29;95148.63;;;15.01;59.26
21182;BME280;10749;46.296;7.524;2022-10-16T02:51:55;95148.63;;;15.01;59.03
21182;BME280;10749;46.296;7.524;2022-10-16T02:54:20;95152.94;;;15.02;59.01
21182;BME280;10749;46.296;7.524;2022-10-16T02:56:45;95158.03;;;15.03;59.28
21182;BME280;10749;46.296;7.524;2022-10-16T02:59:10;95156.38;;;14.96;59.22
21182;BME280;10749;46.296;7.524;2022-10-16T03:01:36;95155.13;;;14.92;58.85
21182;BME280;10749;46.296;7.524;2022-10-16T03:04:01;95159.03;;;14.89;59.05
21182;BME280;10749;46.296;7.524;2022-10-16T03:06:27;95164.16;;;14.91;59.40
21182;BME280;10749;46.296;7.524;2022-10-16T03:08:52;95157.19;;;14.90;59.12
21182;BME280;10749;46.296;7.524;2022-10-16T03:11:17;95162.50;;;14.90;59.19
21182;BME280;10749;46.296;7.524;2022-10-16T03:13:42;95166.19;;;14.89;59.28
21182;BME280;10749;46.296;7.524;2022-10-16T03:16:08;95173.94;;;14.84;59.29
21182;BME280;10749;46.296;7.524;2022-10-16T03:18:33;95180.94;;;14.85;59.10
21182;BME280;10749;46.296;7.524;2022-10-16T03:20:58;95177.63;;;14.83;59.03
21182;BME280;10749;46.296;7.524;2022-10-16T03:23:24;95179.44;;;14.75;58.86
21182;BME280;10749;46.296;7.524;2022-10-16T03:25:49;95177.19;;;14.72;59.17
21182;BME280;10749;46.296;7.524;2022-10-16T03:28:14;95175.78;;;14.76;59.06
21182;BME280;10749;46.296;7.524;2022-10-16T03:30:39;95179.88;;;14.79;59.28
21182;BME280;10749;46.296;7.524;2022-10-16T03:33:05;95172.28;;;14.83;59.37
21182;BME280;10749;46.296;7.524;2022-10-16T03:35:31;95166.59;;;14.86;59.46
21182;BME280;10749;46.296;7.524;2022-10-16T03:37:57;95172.78;;;14.93;59.43
21182;BME280;10749;46.296;7.524;2022-10-16T03:40:23;95172.78;;;14.93;59.10
21182;BME280;10749;46.296;7.524;2022-10-16T03:42:48;95171.13;;;14.92;59.13
21182;BME280;10749;46.296;7.524;2022-10-16T03:45:13;95172.38;;;14.96;59.46
21182;BME280;10749;46.296;7.524;2022-10-16T03:47:39;95180.00;;;14.99;59.09
21182;BME280;10749;46.296;7.524;2022-10-16T03:50:05;95170.34;;;14.98;59.44
21182;BME280;10749;46.296;7.524;2022-10-16T03:52:30;95174.41;;;14.94;59.52
21182;BME280;10749;46.296;7.524;2022-10-16T03:54:57;95175.84;;;14.96;59.32
21182;BME280;10749;46.296;7.524;2022-10-16T03:57:22;95175.03;;;14.96;59.22
21182;BME280;10749;46.296;7.524;2022-10-16T03:59:47;95175.44;;;14.99;59.37
21182;BME280;10749;46.296;7.524;2022-10-16T04:02:13;95169.09;;;15.00;59.29
21182;BME280;10749;46.296;7.524;2022-10-16T04:04:38;95171.59;;;15.02;59.33
21182;BME280;10749;46.296;7.524;2022-10-16T04:07:04;95171.81;;;15.07;59.32
21182;BME280;10749;46.296;7.524;2022-10-16T04:09:29;95177.16;;;15.07;59.21
21182;BME280;10749;46.296;7.524;2022-10-16T04:11:54;95174.47;;;15.07;59.49
21182;BME280;10749;46.296;7.524;2022-10-16T04:14:20;95175.72;;;15.11;59.43
21182;BME280;10749;46.296;7.524;2022-10-16T04:16:45;95181.06;;;15.11;59.33
21182;BME280;10749;46.296;7.524;2022-10-16T04:19:11;95174.91;;;15.10;59.49
21182;BME280;10749;46.296;7.524;2022-10-16T04:21:36;95181.47;;;15.14;59.20
21182;BME280;10749;46.296;7.524;2022-10-16T04:24:02;95185.34;;;15.12;59.47
21182;BME280;10749;46.296;7.524;2022-10-16T04:26:28;95179.81;;;15.07;59.31
21182;BME280;10749;46.296;7.524;2022-10-16T04:28:53;95178.59;;;15.09;59.31
21182;BME280;10749;46.296;7.524;2022-10-16T04:31:19;95181.06;;;15.11;59.63
21182;BME280;10749;46.296;7.524;2022-10-16T04:33:45;95179.63;;;15.15;59.54
21182;BME280;10749;46.296;7.524;2022-10-16T04:36:10;95180.25;;;15.17;59.27
21182;BME280;10749;46.296;7.524;2022-10-16T04:38:36;95190.06;;;15.10;59.45
21182;BME280;10749;46.296;7.524;2022-10-16T04:41:03;95189.22;;;15.03;59.42
21182;BME280;10749;46.296;7.524;2022-10-16T04:43:28;95183.91;;;15.03;59.37
21182;BME280;10749;46.296;7.524;2022-10-16T04:45:53;95182.66;;;15.05;59.54
21182;BME280;10749;46.296;7.524;2022-10-16T04:48:20;95189.44;;;15.08;59.41
21182;BME280;10749;46.296;7.524;2022-10-16T04:50:45;95189.22;;;15.03;59.46
21182;BME280;10749;46.296;7.524;2022-10-16T04:53:11;95198.25;;;15.02;59.59
21182;BME280;10749;46.296;7.524;2022-10-16T04:55:36;95207.44;;;14.99;59.24
21182;BME280;10749;46.296;7.524;2022-10-16T04:58:02;95200.66;;;14.97;59.36
21182;BME280;10749;46.296;7.524;2022-10-16T05:00:27;95197.00;;;15.04;59.18
21182;BME280;10749;46.296;7.524;2022-10-16T05:02:53;95195.00;;;15.13;59.13
21182;BME280;10749;46.296;7.524;2022-10-16T05:05:18;95202.59;;;15.16;59.19
21182;BME280;10749;46.296;7.524;2022-10-16T05:07:47;95195.84;;;15.20;59.04
21182;BME280;10749;46.296;7.524;2022-10-16T05:10:12;95187.84;;;15.20;59.17
21182;BME280;10749;46.296;7.524;2022-10-16T05:12:37;95192.97;;;15.15;58.93
21182;BME280;10749;46.296;7.524;2022-10-16T05:15:03;95191.50;;;15.12;59.07
21182;BME280;10749;46.296;7.524;2022-10-16T05:17:29;95190.91;;;15.17;59.42
21182;BME280;10749;46.296;7.524;2022-10-16T05:19:54;95193.56;;;15.17;59.44
21182;BME280;10749;46.296;7.524;2022-10-16T05:22:19;95188.66;;;15.14;59.20
21182;BME280;10749;46.296;7.524;2022-10-16T05:24:45;95186.00;;;15.14;59.44
21182;BME280;10749;46.296;7.524;2022-10-16T05:27:10;95192.75;;;15.10;59.04
21182;BME280;10749;46.296;7.524;2022-10-16T05:29:36;95192.34;;;15.13;59.36
21182;BME280;10749;46.296;7.524;2022-10-16T05:32:02;95189.88;;;15.11;59.26
21182;BME280;10749;46.296;7.524;2022-10-16T05:34:27;95193.34;;;15.05;59.32
21182;BME280;10749;46.296;7.524;2022-10-16T05:36:52;95190.44;;;15.00;59.30
21182;BME280;10749;46.296;7.524;2022-10-16T05:39:17;95191.66;;;14.98;59.16
21182;BME280;10749;46.296;7.524;2022-10-16T05:41:43;95191.66;;;14.98;59.25
21182;BME280;10749;46.296;7.524;2022-10-16T05:44:09;95201.50;;;14.97;59.47
21182;BME280;10749;46.296;7.524;2022-10-16T05:46:34;95201.06;;;14.94;59.15
21182;BME280;10749;46.296;7.524;2022-10-16T05:48:59;95212.50;;;14.88;59.26
21182;BME280;10749;46.296;7.524;2022-10-16T05:51:25;95207.19;;;14.88;59.51
21182;BME280;10749;46.296;7.524;2022-10-16T05:53:51;95216.41;;;14.85;59.29
21182;BME280;10749;46.296;7.524;2022-10-16T05:56:17;95219.88;;;14.86;59.32
21182;BME280;10749;46.296;7.524;2022-10-16T05:58:42;95211.91;;;14.86;59.67
21182;BME280;10749;46.296;7.524;2022-10-16T06:01:14;95223.56;;;14.85;59.58
21182;BME280;10749;46.296;7.524;2022-10-16T06:03:40;95213.31;;;14.82;59.53
21182;BME280;10749;46.296;7.524;2022-10-16T06:06:14;95215.34;;;14.79;59.47
21182;BME280;10749;46.296;7.524;2022-10-16T06:08:40;95214.94;;;14.83;59.78
21182;BME280;10749;46.296;7.524;2022-10-16T06:11:08;95227.66;;;14.81;59.45
21182;BME280;10749;46.296;7.524;2022-10-16T06:13:34;95213.91;;;14.84;59.66
21182;BME280;10749;46.296;7.524;2022-10-16T06:16:00;95216.59;;;14.84;59.55
21182;BME280;10749;46.296;7.524;2022-10-16T06:18:27;95215.75;;;14.83;59.56
21182;BME280;10749;46.296;7.524;2022-10-16T06:20:53;95217.41;;;14.84;59.63
21182;BME280;10749;46.296;7.524;2022-10-16T06:23:18;95206.81;;;14.91;59.99
21182;BME280;10749;46.296;7.524;2022-10-16T06:25:44;95214.63;;;14.99;59.56
21182;BME280;10749;46.296;7.524;2022-10-16T06:28:09;95210.94;;;15.00;59.43
21182;BME280;10749;46.296;7.524;2022-10-16T06:30:34;95212.97;;;14.98;59.40
21182;BME280;10749;46.296;7.524;2022-10-16T06:33:00;95204.16;;;14.97;59.71
21182;BME280;10749;46.296;7.524;2022-10-16T06:35:25;95215.25;;;15.01;59.59
21182;BME280;10749;46.296;7.524;2022-10-16T06:37:52;95214.66;;;15.05;59.80
21182;BME280;10749;46.296;7.524;2022-10-16T06:40:18;95219.00;;;15.13;59.22
21182;BME280;10749;46.296;7.524;2022-10-16T06:42:43;95220.47;;;15.15;59.35
21182;BME280;10749;46.296;7.524;2022-10-16T06:45:09;95217.56;;;15.17;59.38
21182;BME280;10749;46.296;7.524;2022-10-16T06:47:34;95227.84;;;15.20;59.25
21182;BME280;10749;46.296;7.524;2022-10-16T06:49:59;95232.78;;;15.23;59.50
21182;BME280;10749;46.296;7.524;2022-10-16T06:52:27;95228.72;;;15.34;59.29
21182;BME280;10749;46.296;7.524;2022-10-16T06:54:53;95233.69;;;15.43;59.21
21182;BME280;10749;46.296;7.524;2022-10-16T06:57:18;95236.34;;;15.43;59.21
21182;BME280;10749;46.296;7.524;2022-10-16T06:59:44;95248.06;;;15.49;59.25
21182;BME280;10749;46.296;7.524;2022-10-16T07:02:10;95253.47;;;15.55;59.35
21182;BME280;10749;46.296;7.524;2022-10-16T07:04:36;95249.38;;;15.59;58.97
21182;BME280;10749;46.296;7.524;2022-10-16T07:07:01;95253.28;;;15.63;59.23
21182;BME280;10749;46.296;7.524;2022-10-16T07:09:27;95263.13;;;15.69;59.15
21182;BME280;10749;46.296;7.524;2022-10-16T07:11:52;95269.34;;;15.77;59.05
21182;BME280;10749;46.296;7.524;2022-10-16T07:14:20;95266.91;;;15.82;59.10
21182;BME280;10749;46.296;7.524;2022-10-16T07:16:45;95275.69;;;15.82;58.83
21182;BME280;10749;46.296;7.524;2022-10-16T07:19:11;95270.38;;;15.89;59.00
21182;BME280;10749;46.296;7.524;2022-10-16T07:21:38;95266.91;;;15.95;58.71
21182;BME280;10749;46.296;7.524;2022-10-16T07:24:06;95276.16;;;15.99;58.59
21182;BME280;10749;46.296;7.524;2022-10-16T07:26:35;95279.44;;;16.01;58.66
21182;BME280;10749;46.296;7.524;2022-10-16T07:29:00;95285.63;;;16.08;58.53
21182;BME280;10749;46.296;7.524;2022-10-16T07:31:26;95281.75;;;16.10;58.64
21182;BME280;10749;46.296;7.524;2022-10-16T07:33:52;95275.38;;;16.18;58.59
21182;BME280;10749;46.296;7.524;2022-10-16T07:36:19;95292.03;;;16.27;58.91
21182;BME280;10749;46.296;7.524;2022-10-16T07:38:44;95294.09;;;16.31;58.81
21182;BME280;10749;46.296;7.524;2022-10-16T07:41:15;95294.91;;;16.38;58.74
21182;BME280;10749;46.296;7.524;2022-10-16T07:43:45;95302.50;;;16.41;58.97
21182;BME280;10749;46.296;7.524;2022-10-16T07:46:11;95302.09;;;16.44;58.69
21182;BME280;10749;46.296;7.524;2022-10-16T07:48:37;95314.84;;;16.42;58.59
21182;BME280;10749;46.296;7.524;2022-10-16T07:51:05;95313.63;;;16.38;58.87
21182;BME280;10749;46.296;7.524;2022-10-16T07:53:32;95315.44;;;16.44;58.85
21182;BME280;10749;46.296;7.524;2022-10-16T07:56:02;95325.94;;;16.52;58.87
21182;BME280;10749;46.296;7.524;2022-10-16T07:58:28;95328.06;;;16.64;58.88
21182;BME280;10749;46.296;7.524;2022-10-16T08:00:54;95332.16;;;16.66;58.35
21182;BME280;10749;46.296;7.524;2022-10-16T08:03:20;95326.81;;;16.59;58.33
21182;BME280;10749;46.296;7.524;2022-10-16T08:05:45;95332.53;;;16.56;58.51
21182;BME280;10749;46.296;7.524;2022-10-16T08:08:13;95341.38;;;16.50;58.39
21182;BME280;10749;46.296;7.524;2022-10-16T08:10:39;95338.47;;;16.45;58.37
21182;BME280;10749;46.296;7.524;2022-10-16T08:13:04;95333.75;;;16.54;58.55
21182;BME280;10749;46.296;7.524;2022-10-16T08:15:29;95336.69;;;16.66;58.50
21182;BME280;10749;46.296;7.524;2022-10-16T08:18:00;95336.25;;;16.82;58.63
21182;BME280;10749;46.296;7.524;2022-10-16T08:20:26;95329.91;;;16.96;58.65
21182;BME280;10749;46.296;7.524;2022-10-16T08:22:52;95334.81;;;16.99;58.50
21182;BME280;10749;46.296;7.524;2022-10-16T08:25:19;95321.88;;;16.96;58.59
21182;BME280;10749;46.296;7.524;2022-10-16T08:27:44;95327.22;;;17.09;58.42
21182;BME280;10749;46.296;7.524;2022-10-16T08:30:10;95321.63;;;17.17;58.74
21182;BME280;10749;46.296;7.524;2022-10-16T08:32:35;95319.75;;;17.37;58.75
21182;BME280;10749;46.296;7.524;2022-10-16T08:35:01;95325.47;;;17.61;58.44
21182;BME280;10749;46.296;7.524;2022-10-16T08:37:30;95319.28;;;17.67;58.30
21182;BME280;10749;46.296;7.524;2022-10-16T08:39:55;95329.94;;;17.73;58.29
21182;BME280;10749;46.296;7.524;2022-10-16T08:45:17;95331.13;;;17.90;58.19
21182;BME280;10749;46.296;7.524;2022-10-16T08:47:51;95331.50;;;17.94;58.21
21182;BME280;10749;46.296;7.524;2022-10-16T08:50:25;95326.16;;;17.94;58.12
21182;BME280;10749;46.296;7.524;2022-10-16T08:52:53;95321.44;;;17.89;57.65
21182;BME280;10749;46.296;7.524;2022-10-16T08:58:00;95323.91;;;17.91;57.90
21182;BME280;10749;46.296;7.524;2022-10-16T09:00:27;95327.22;;;17.93;57.90
21182;BME280;10749;46.296;7.524;2022-10-16T09:03:07;95320.72;;;18.07;57.72
21182;BME280;10749;46.296;7.524;2022-10-16T09:14:44;95315.78;;;18.42;57.78
21182;BME280;10749;46.296;7.524;2022-10-16T09:16:42;95310.59;;;18.47;57.53
21182;BME280;10749;46.296;7.524;2022-10-16T09:19:18;95313.47;;;18.52;57.56
21182;BME280;10749;46.296;7.524;2022-10-16T09:21:47;95314.69;;;18.56;57.21
21182;BME280;10749;46.296;7.524;2022-10-16T09:24:17;95311.97;;;18.63;57.34
21182;BME280;10749;46.296;7.524;2022-10-16T09:26:44;95305.72;;;18.69;57.29
21182;BME280;10749;46.296;7.524;2022-10-16T09:29:14;95305.72;;;18.69;57.09
21182;BME280;10749;46.296;7.524;2022-10-16T09:31:41;95307.84;;;18.85;57.13
21182;BME280;10749;46.296;7.524;2022-10-16T09:34:24;95305.13;;;18.92;56.85
21182;BME280;10749;46.296;7.524;2022-10-16T09:36:52;95295.63;;;18.71;54.98
21182;BME280;10749;46.296;7.524;2022-10-16T09:39:17;95302.22;;;18.68;55.13
21182;BME280;10749;46.296;7.524;2022-10-16T09:41:44;95298.56;;;18.87;55.95
21182;BME280;10749;46.296;7.524;2022-10-16T09:44:30;95296.91;;;19.11;56.38
21182;BME280;10749;46.296;7.524;2022-10-16T09:47:04;95292.81;;;19.27;56.47
21182;BME280;10749;46.296;7.524;2022-10-16T09:49:30;95296.41;;;19.39;56.20
21182;BME280;10749;46.296;7.524;2022-10-16T09:52:05;95299.78;;;19.53;56.28
21182;BME280;10749;46.296;7.524;2022-10-16T09:54:31;95294.75;;;19.63;56.24
21182;BME280;10749;46.296;7.524;2022-10-16T09:57:07;95296.19;;;19.77;56.19
21182;BME280;10749;46.296;7.524;2022-10-16T09:59:33;95291.13;;;19.87;56.03
21182;BME280;10749;46.296;7.524;2022-10-16T10:02:02;95285.81;;;19.99;55.73
21182;BME280;10749;46.296;7.524;2022-10-16T10:04:38;95286.31;;;20.07;55.69
21182;BME280;10749;46.296;7.524;2022-10-16T10:07:04;95283.66;;;20.19;55.79
21182;BME280;10749;46.296;7.524;2022-10-16T10:09:47;95279.13;;;20.19;55.31
21182;BME280;10749;46.296;7.524;2022-10-16T10:12:23;95278.13;;;20.32;55.51
21182;BME280;10749;46.296;7.524;2022-10-16T10:14:51;95277.97;;;20.57;55.45
21182;BME280;10749;46.296;7.524;2022-10-16T10:17:20;95275.78;;;20.77;55.35
21182;BME280;10749;46.296;7.524;2022-10-16T10:22:30;95267.63;;;20.95;55.00
21182;BME280;10749;46.296;7.524;2022-10-16T10:25:00;95275.72;;;21.18;54.92
21182;BME280;10749;46.296;7.524;2022-10-16T10:30:20;95270.03;;;21.55;54.90
21182;BME280;10749;46.296;7.524;2022-10-16T10:33:03;95263.34;;;21.69;54.53
21182;BME280;10749;46.296;7.524;2022-10-16T10:35:53;95265.66;;;21.77;54.76
21182;BME280;10749;46.296;7.524;2022-10-16T10:50:00;95246.34;;;22.53;53.69
21182;BME280;10749;46.296;7.524;2022-10-16T10:55:37;95246.16;;;22.88;53.08
21182;BME280;10749;46.296;7.524;2022-10-16T10:58:15;95236.66;;;23.02;52.82
21182;BME280;10749;46.296;7.524;2022-10-16T11:06:20;95240.31;;;23.30;52.58
21182;BME280;10749;46.296;7.524;2022-10-16T11:08:58;95230.22;;;23.42;51.21
21182;BME280;10749;46.296;7.524;2022-10-16T11:11:30;95228.09;;;23.44;51.12
21182;BME280;10749;46.296;7.524;2022-10-16T11:16:27;95226.16;;;23.83;50.91
21182;BME280;10749;46.296;7.524;2022-10-16T11:18:59;95212.41;;;23.84;50.63
21182;BME280;10749;46.296;7.524;2022-10-16T11:21:30;95212.41;;;24.11;50.55
21182;BME280;10749;46.296;7.524;2022-10-16T11:26:42;95208.47;;;24.46;50.53
21182;BME280;10749;46.296;7.524;2022-10-16T11:29:23;95196.56;;;24.47;50.29
21182;BME280;10749;46.296;7.524;2022-10-16T11:31:54;95195.34;;;24.64;50.64
21182;BME280;10749;46.296;7.524;2022-10-16T11:34:28;95187.84;;;24.76;49.29
21182;BME280;10749;46.296;7.524;2022-10-16T11:37:12;95185.31;;;24.92;50.21
21182;BME280;10749;46.296;7.524;2022-10-16T11:39:39;95173.78;;;25.11;50.09
21182;BME280;10749;46.296;7.524;2022-10-16T11:42:44;95174.72;;;25.32;49.75
21182;BME280;10749;46.296;7.524;2022-10-16T11:45:44;95170.25;;;25.58;49.75
21182;BME280;10749;46.296;7.524;2022-10-16T11:48:25;95171.91;;;25.69;49.58
21182;BME280;10749;46.296;7.524;2022-10-16T11:50:54;95163.03;;;25.79;49.43
21182;BME280;10749;46.296;7.524;2022-10-16T11:53:46;95160.59;;;25.87;48.84
21182;BME280;10749;46.296;7.524;2022-10-16T11:56:17;95152.75;;;25.91;48.25
21182;BME280;10749;46.296;7.524;2022-10-16T11:59:10;95151.97;;;26.00;48.22
21182;BME280;10749;46.296;7.524;2022-10-16T12:01:46;95141.09;;;25.95;47.30
21182;BME280;10749;46.296;7.524;2022-10-16T12:04:39;95137.59;;;26.15;47.51
21182;BME280;10749;46.296;7.524;2022-10-16T12:07:21;95136.03;;;26.39;47.20
21182;BME280;10749;46.296;7.524;2022-10-16T12:09:48;95135.47;;;26.52;46.76
21182;BME280;10749;46.296;7.524;2022-10-16T12:12:36;95132.78;;;26.52;46.72
21182;BME280;10749;46.296;7.524;2022-10-16T12:17:43;95120.56;;;26.70;45.43
21182;BME280;10749;46.296;7.524;2022-10-16T12:22:36;95119.16;;;26.93;45.53
21182;BME280;10749;46.296;7.524;2022-10-16T12:25:05;95108.28;;;27.08;45.87
21182;BME280;10749;46.296;7.524;2022-10-16T12:27:43;95099.59;;;27.11;44.74
21182;BME280;10749;46.296;7.524;2022-10-16T12:30:21;95105.53;;;27.13;44.97
21182;BME280;10749;46.296;7.524;2022-10-16T12:32:54;95100.34;;;27.22;44.85
21182;BME280;10749;46.296;7.524;2022-10-16T12:35:22;95096.53;;;27.28;44.57
21182;BME280;10749;46.296;7.524;2022-10-16T12:37:49;95101.09;;;27.37;44.26
21182;BME280;10749;46.296;7.524;2022-10-16T12:42:46;95090.81;;;27.29;43.79
21182;BME280;10749;46.296;7.524;2022-10-16T12:45:26;95091.09;;;27.33;44.09
21182;BME280;10749;46.296;7.524;2022-10-16T12:47:53;95084.28;;;27.35;43.73
21182;BME280;10749;46.296;7.524;2022-10-16T12:50:31;95084.78;;;27.42;43.47
21182;BME280;10749;46.296;7.524;2022-10-16T12:52:58;95094.78;;;27.62;43.23
21182;BME280;10749;46.296;7.524;2022-10-16T12:55:24;95088.94;;;27.84;43.26
21182;BME280;10749;46.296;7.524;2022-10-16T12:58:17;95092.59;;;28.08;43.18
21182;BME280;10749;46.296;7.524;2022-10-16T13:03:54;95079.84;;;28.42;42.53
21182;BME280;10749;46.296;7.524;2022-10-16T13:23:43;95084.66;;;29.08;41.27
21182;BME280;10749;46.296;7.524;2022-10-16T13:28:43;95087.41;;;29.56;40.86
21182;BME280;10749;46.296;7.524;2022-10-16T13:31:23;95086.44;;;29.65;40.61
21182;BME280;10749;46.296;7.524;2022-10-16T13:33:55;95090.09;;;29.79;40.44
21182;BME280;10749;46.296;7.524;2022-10-16T13:38:46;95087.31;;;30.03;39.68
21182;BME280;10749;46.296;7.524;2022-10-16T13:41:18;95091.06;;;30.07;39.87
21182;BME280;10749;46.296;7.524;2022-10-16T13:43:49;95081.78;;;30.08;39.51
21182;BME280;10749;46.296;7.524;2022-10-16T13:46:21;95082.13;;;30.20;39.50
21182;BME280;10749;46.296;7.524;2022-10-16T13:49:04;95087.53;;;30.25;39.23
21182;BME280;10749;46.296;7.524;2022-10-16T13:53:57;95080.59;;;30.52;38.40
21182;BME280;10749;46.296;7.524;2022-10-16T13:56:26;95087.56;;;30.58;38.45
21182;BME280;10749;46.296;7.524;2022-10-16T13:58:59;95085.03;;;30.61;38.25
21182;BME280;10749;46.296;7.524;2022-10-16T14:01:42;95083.22;;;30.57;37.58
21182;BME280;10749;46.296;7.524;2022-10-16T14:04:11;95074.69;;;30.45;36.82
21182;BME280;10749;46.296;7.524;2022-10-16T14:06:41;95083.53;;;30.37;36.48
21182;BME280;10749;46.296;7.524;2022-10-16T14:09:26;95088.56;;;30.30;37.24
21182;BME280;10749;46.296;7.524;2022-10-16T14:14:24;95071.25;;;30.02;36.02
21182;BME280;10749;46.296;7.524;2022-10-16T14:16:51;95073.44;;;30.00;35.58
21182;BME280;10749;46.296;7.524;2022-10-16T14:19:24;95066.53;;;29.89;35.37
21182;BME280;10749;46.296;7.524;2022-10-16T14:21:51;95075.13;;;29.77;35.23
21182;BME280;10749;46.296;7.524;2022-10-16T14:24:35;95070.00;;;29.70;36.15
21182;BME280;10749;46.296;7.524;2022-10-16T14:27:01;95071.88;;;29.56;35.30
21182;BME280;10749;46.296;7.524;2022-10-16T14:29:29;95068.09;;;29.28;35.05
21182;BME280;10749;46.296;7.524;2022-10-16T14:32:01;95065.72;;;28.98;35.50
21182;BME280;10749;46.296;7.524;2022-10-16T14:34:37;95055.03;;;28.78;35.55
21182;BME280;10749;46.296;7.524;2022-10-16T14:37:15;95057.69;;;28.54;35.34
21182;BME280;10749;46.296;7.524;2022-10-16T14:39:49;95063.63;;;28.27;34.95
21182;BME280;10749;46.296;7.524;2022-10-16T14:42:16;95064.88;;;28.01;34.88